createdAt,value
2017-06-29T00:11:43.000Z,69.2
2017-06-29T00:28:32.000Z,69.2
2017-06-29T00:45:21.000Z,69.2
2017-06-29T01:02:10.000Z,69.2
2017-06-29T01:19:00.000Z,69.2
2017-06-29T01:35:49.000Z,69.2
2017-06-29T01:52:38.000Z,69.2
2017-06-29T02:09:27.000Z,69.2
2017-06-29T02:26:16.000Z,68.8
2017-06-29T02:43:05.000Z,68.8
2017-06-29T02:59:54.000Z,68.8
2017-06-29T03:16:43.000Z,68.4
2017-06-29T03:33:32.000Z,68.4
2017-06-29T03:50:21.000Z,67.6
2017-06-29T04:07:10.000Z,67.6
2017-06-29T04:23:59.000Z,67.6
2017-06-29T04:40:47.000Z,67.2
2017-06-29T04:57:36.000Z,67.2
2017-06-29T05:14:25.000Z,66.8
2017-06-29T05:31:14.000Z,66.8
2017-06-29T05:48:04.000Z,66.8
2017-06-29T06:04:54.000Z,66.4
2017-06-29T06:21:43.000Z,66.8
2017-06-29T06:38:33.000Z,66.4
2017-06-29T06:55:23.000Z,66.4
2017-06-29T07:12:13.000Z,66.4
2017-06-29T07:29:04.000Z,66.8
2017-06-29T07:45:53.000Z,66.8
2017-06-29T08:02:43.000Z,66.8
2017-06-29T08:19:33.000Z,66.8
2017-06-29T08:36:23.000Z,66.8
2017-06-29T08:53:13.000Z,66.8
2017-06-29T09:10:02.000Z,66.8
2017-06-29T09:26:52.000Z,66.8
2017-06-29T09:43:41.000Z,66.4
2017-06-29T10:00:32.000Z,66.8
2017-06-29T10:17:22.000Z,67.2
2017-06-29T10:34:11.000Z,67.2
2017-06-29T10:51:01.000Z,66.8
2017-06-29T11:07:52.000Z,66
2017-06-29T11:24:41.000Z,66
2017-06-29T11:41:31.000Z,65.6
2017-06-29T11:58:21.000Z,65.6
2017-06-29T12:15:11.000Z,66
2017-06-29T12:32:01.000Z,66
2017-06-29T12:48:50.000Z,65.6
2017-06-29T13:05:40.000Z,66
2017-06-29T13:22:29.000Z,66.4
2017-06-29T13:39:20.000Z,65.6
2017-06-29T13:56:09.000Z,65.6
2017-06-29T14:12:59.000Z,66
2017-06-29T14:29:49.000Z,66
2017-06-29T14:46:38.000Z,66
2017-06-29T15:03:29.000Z,66
2017-06-29T15:20:18.000Z,66.4
2017-06-29T15:37:08.000Z,68
2017-06-29T15:53:59.000Z,68.4
2017-06-29T16:10:49.000Z,69.2
2017-06-29T16:27:39.000Z,69.2
2017-06-29T16:44:28.000Z,69.6
2017-06-29T17:01:19.000Z,69.6
2017-06-29T17:18:09.000Z,70
2017-06-29T17:34:59.000Z,70.8
2017-06-29T17:51:48.000Z,70.8
2017-06-29T18:08:39.000Z,70.8
2017-06-29T18:25:29.000Z,70.8
2017-06-29T18:42:18.000Z,70.8
2017-06-29T18:59:09.000Z,70.8
2017-06-29T19:09:14.000Z,70.4
2017-06-29T19:26:03.000Z,71.2
2017-06-29T19:42:53.000Z,70.8
2017-06-29T19:59:43.000Z,70.4
2017-06-29T20:16:33.000Z,70.4
2017-06-29T20:33:23.000Z,70.4
2017-06-29T20:50:13.000Z,71.2
2017-06-29T21:07:04.000Z,71.2
2017-06-29T21:23:52.000Z,71.2
2017-06-29T21:40:42.000Z,71.2
2017-06-29T21:57:32.000Z,71.2
2017-06-29T22:14:21.000Z,72.4
2017-06-29T22:31:10.000Z,72.4
2017-06-29T22:48:00.000Z,72.4
2017-06-29T23:04:49.000Z,71.6
2017-06-29T23:21:39.000Z,71.6
2017-06-29T23:38:28.000Z,71.6
2017-06-29T23:55:18.000Z,71.2
